sensor_id;sensor_type;location;lat;lon;timestamp;temperature;humidity
8832;DHT22;4452;50.756;4.472;2023-03-14T00:01:54;10.70;99.90
8832;DHT22;4452;50.756;4.472;2023-03-14T00:04:19;10.60;99.90
8832;DHT22;4452;50.756;4.472;2023-03-14T00:06:45;10.60;99.90
8832;DHT22;4452;50.756;4.472;2023-03-14T00:09:13;10.60;99.90
8832;DHT22;4452;50.756;4.472;2023-03-14T00:11:39;10.60;99.90
8832;DHT22;4452;50.756;4.472;2023-03-14T00:14:04;10.50;99.90
8832;DHT22;4452;50.756;4.472;2023-03-14T00:16:30;10.60;99.90
8832;DHT22;4452;50.756;4.472;2023-03-14T00:18:58;10.60;99.90
8832;DHT22;4452;50.756;4.472;2023-03-14T00:21:24;10.50;99.90
8832;DHT22;4452;50.756;4.472;2023-03-14T00:23:50;10.50;99.90
8832;DHT22;4452;50.756;4.472;2023-03-14T00:26:18;10.50;99.90
8832;DHT22;4452;50.756;4.472;2023-03-14T00:28:45;10.50;99.90
8832;DHT22;4452;50.756;4.472;2023-03-14T00:31:14;10.40;99.90
8832;DHT22;4452;50.756;4.472;2023-03-14T00:33:41;10.40;99.90
8832;DHT22;4452;50.756;4.472;2023-03-14T00:36:09;10.40;99.90
8832;DHT22;4452;50.756;4.472;2023-03-14T00:38:37;10.40;99.90
8832;DHT22;4452;50.756;4.472;2023-03-14T00:41:07;10.40;99.90
8832;DHT22;4452;50.756;4.472;2023-03-14T00:43:34;10.40;99.90
8832;DHT22;4452;50.756;4.472;2023-03-14T00:46:00;10.40;99.90
8832;DHT22;4452;50.756;4.472;2023-03-14T00:48:25;10.40;99.90
8832;DHT22;4452;50.756;4.472;2023-03-14T00:50:51;10.40;99.90
8832;DHT22;4452;50.756;4.472;2023-03-14T00:53:17;10.40;99.90
8832;DHT22;4452;50.756;4.472;2023-03-14T00:55:43;10.40;99.90
8832;DHT22;4452;50.756;4.472;2023-03-14T00:58:11;10.40;99.90
8832;DHT22;4452;50.756;4.472;2023-03-14T01:00:37;10.40;99.90
8832;DHT22;4452;50.756;4.472;2023-03-14T01:03:03;10.30;99.90
8832;DHT22;4452;50.756;4.472;2023-03-14T01:05:29;10.30;99.90
8832;DHT22;4452;50.756;4.472;2023-03-14T01:07:54;10.30;99.90
8832;DHT22;4452;50.756;4.472;2023-03-14T01:10:20;10.40;99.90
8832;DHT22;4452;50.756;4.472;2023-03-14T01:12:46;10.40;99.90
8832;DHT22;4452;50.756;4.472;2023-03-14T01:15:12;10.40;99.90
8832;DHT22;4452;50.756;4.472;2023-03-14T01:17:38;10.40;99.90
8832;DHT22;4452;50.756;4.472;2023-03-14T01:20:07;10.30;99.90
8832;DHT22;4452;50.756;4.472;2023-03-14T01:22:37;10.30;99.90
8832;DHT22;4452;50.756;4.472;2023-03-14T01:25:06;10.40;99.90
8832;DHT22;4452;50.756;4.472;2023-03-14T01:27:33;10.30;99.90
8832;DHT22;4452;50.756;4.472;2023-03-14T01:29:58;10.30;99.90
8832;DHT22;4452;50.756;4.472;2023-03-14T01:32:24;10.30;99.90
8832;DHT22;4452;50.756;4.472;2023-03-14T01:34:51;10.30;99.90
8832;DHT22;4452;50.756;4.472;2023-03-14T01:37:17;10.20;99.90
8832;DHT22;4452;50.756;4.472;2023-03-14T01:39:43;10.10;99.90
8832;DHT22;4452;50.756;4.472;2023-03-14T01:42:09;10.10;99.90
8832;DHT22;4452;50.756;4.472;2023-03-14T01:44:57;9.90;99.90
8832;DHT22;4452;50.756;4.472;2023-03-14T01:47:24;9.80;99.90
8832;DHT22;4452;50.756;4.472;2023-03-14T01:50:02;9.50;99.90
8832;DHT22;4452;50.756;4.472;2023-03-14T01:52:33;9.30;99.90
8832;DHT22;4452;50.756;4.472;2023-03-14T01:55:06;9.20;99.90
8832;DHT22;4452;50.756;4.472;2023-03-14T01:57:37;9.10;99.90
8832;DHT22;4452;50.756;4.472;2023-03-14T02:00:13;9.00;99.90
8832;DHT22;4452;50.756;4.472;2023-03-14T02:02:42;8.90;99.90
8832;DHT22;4452;50.756;4.472;2023-03-14T02:05:09;8.90;99.90
8832;DHT22;4452;50.756;4.472;2023-03-14T02:07:50;8.80;99.90
8832;DHT22;4452;50.756;4.472;2023-03-14T02:10:18;8.70;99.90
8832;DHT22;4452;50.756;4.472;2023-03-14T02:12:49;8.70;99.90
8832;DHT22;4452;50.756;4.472;2023-03-14T02:15:15;8.60;99.90
8832;DHT22;4452;50.756;4.472;2023-03-14T02:17:42;8.60;99.90
8832;DHT22;4452;50.756;4.472;2023-03-14T02:20:30;8.60;99.90
8832;DHT22;4452;50.756;4.472;2023-03-14T02:22:59;8.60;99.90
8832;DHT22;4452;50.756;4.472;2023-03-14T02:25:42;8.60;99.90
8832;DHT22;4452;50.756;4.472;2023-03-14T02:28:11;8.60;99.90
8832;DHT22;4452;50.756;4.472;2023-03-14T02:30:38;8.60;99.90
8832;DHT22;4452;50.756;4.472;2023-03-14T02:33:05;8.60;99.90
8832;DHT22;4452;50.756;4.472;2023-03-14T02:35:45;8.60;99.90
8832;DHT22;4452;50.756;4.472;2023-03-14T02:38:33;8.60;99.90
8832;DHT22;4452;50.756;4.472;2023-03-14T02:41:01;8.70;99.90
8832;DHT22;4452;50.756;4.472;2023-03-14T02:43:27;8.70;99.90
8832;DHT22;4452;50.756;4.472;2023-03-14T02:45:53;8.70;99.90
8832;DHT22;4452;50.756;4.472;2023-03-14T02:50:48;8.80;99.90
8832;DHT22;4452;50.756;4.472;2023-03-14T02:53:19;8.90;99.90
8832;DHT22;4452;50.756;4.472;2023-03-14T02:55:47;8.90;99.90
8832;DHT22;4452;50.756;4.472;2023-03-14T02:58:14;8.90;99.90
8832;DHT22;4452;50.756;4.472;2023-03-14T03:00:40;8.90;99.90
8832;DHT22;4452;50.756;4.472;2023-03-14T03:03:05;9.00;99.90
8832;DHT22;4452;50.756;4.472;2023-03-14T03:05:31;8.90;99.90
8832;DHT22;4452;50.756;4.472;2023-03-14T03:07:57;9.00;99.90
8832;DHT22;4452;50.756;4.472;2023-03-14T03:10:24;9.00;99.90
8832;DHT22;4452;50.756;4.472;2023-03-14T03:12:50;9.00;99.90
8832;DHT22;4452;50.756;4.472;2023-03-14T03:15:16;9.00;99.90
8832;DHT22;4452;50.756;4.472;2023-03-14T03:17:42;9.00;99.90
8832;DHT22;4452;50.756;4.472;2023-03-14T03:20:08;9.00;99.90
8832;DHT22;4452;50.756;4.472;2023-03-14T03:22:35;9.00;99.90
8832;DHT22;4452;50.756;4.472;2023-03-14T03:25:02;9.00;99.90
8832;DHT22;4452;50.756;4.472;2023-03-14T03:27:30;9.00;99.90
8832;DHT22;4452;50.756;4.472;2023-03-14T03:29:56;9.00;99.90
8832;DHT22;4452;50.756;4.472;2023-03-14T03:32:22;9.00;99.90
8832;DHT22;4452;50.756;4.472;2023-03-14T03:34:48;9.00;99.90
8832;DHT22;4452;50.756;4.472;2023-03-14T03:37:13;9.00;99.90
8832;DHT22;4452;50.756;4.472;2023-03-14T03:39:39;9.10;99.90
8832;DHT22;4452;50.756;4.472;2023-03-14T03:42:05;9.10;99.90
8832;DHT22;4452;50.756;4.472;2023-03-14T03:44:30;9.10;99.90
8832;DHT22;4452;50.756;4.472;2023-03-14T03:46:56;9.10;99.90
8832;DHT22;4452;50.756;4.472;2023-03-14T03:49:22;9.20;99.90
8832;DHT22;4452;50.756;4.472;2023-03-14T03:51:48;9.20;99.90
8832;DHT22;4452;50.756;4.472;2023-03-14T03:54:14;9.10;99.90
8832;DHT22;4452;50.756;4.472;2023-03-14T03:56:40;9.10;99.90
8832;DHT22;4452;50.756;4.472;2023-03-14T03:59:05;9.10;99.90
8832;DHT22;4452;50.756;4.472;2023-03-14T04:01:31;9.20;99.90
8832;DHT22;4452;50.756;4.472;2023-03-14T04:03:57;9.10;99.90
8832;DHT22;4452;50.756;4.472;2023-03-14T04:06:22;9.20;99.90
8832;DHT22;4452;50.756;4.472;2023-03-14T04:08:48;9.20;99.90
8832;DHT22;4452;50.756;4.472;2023-03-14T04:11:14;9.20;99.90
8832;DHT22;4452;50.756;4.472;2023-03-14T04:13:40;9.20;99.90
8832;DHT22;4452;50.756;4.472;2023-03-14T04:16:14;9.20;99.90
8832;DHT22;4452;50.756;4.472;2023-03-14T04:18:41;9.20;99.90
8832;DHT22;4452;50.756;4.472;2023-03-14T04:21:07;9.20;99.90
8832;DHT22;4452;50.756;4.472;2023-03-14T04:23:32;9.30;99.90
8832;DHT22;4452;50.756;4.472;2023-03-14T04:25:59;9.20;99.90
8832;DHT22;4452;50.756;4.472;2023-03-14T04:28:25;9.20;99.90
8832;DHT22;4452;50.756;4.472;2023-03-14T04:30:50;9.30;99.90
8832;DHT22;4452;50.756;4.472;2023-03-14T04:33:16;9.30;99.90
8832;DHT22;4452;50.756;4.472;2023-03-14T04:35:45;9.30;99.90
8832;DHT22;4452;50.756;4.472;2023-03-14T04:38:11;9.30;99.90
8832;DHT22;4452;50.756;4.472;2023-03-14T04:40:41;9.30;99.90
8832;DHT22;4452;50.756;4.472;2023-03-14T04:43:08;9.30;99.90
8832;DHT22;4452;50.756;4.472;2023-03-14T04:45:35;9.40;99.90
8832;DHT22;4452;50.756;4.472;2023-03-14T04:48:00;9.40;99.90
8832;DHT22;4452;50.756;4.472;2023-03-14T04:50:26;9.50;99.90
8832;DHT22;4452;50.756;4.472;2023-03-14T04:52:52;9.50;99.90
8832;DHT22;4452;50.756;4.472;2023-03-14T04:55:18;9.50;99.90
8832;DHT22;4452;50.756;4.472;2023-03-14T04:57:43;9.50;99.90
8832;DHT22;4452;50.756;4.472;2023-03-14T05:00:10;9.50;99.90
8832;DHT22;4452;50.756;4.472;2023-03-14T05:02:35;9.50;99.90
8832;DHT22;4452;50.756;4.472;2023-03-14T05:05:01;9.50;99.90
8832;DHT22;4452;50.756;4.472;2023-03-14T05:07:27;9.50;99.90
8832;DHT22;4452;50.756;4.472;2023-03-14T05:09:53;9.50;99.90
8832;DHT22;4452;50.756;4.472;2023-03-14T05:12:19;9.50;99.90
8832;DHT22;4452;50.756;4.472;2023-03-14T05:14:45;9.50;99.90
8832;DHT22;4452;50.756;4.472;2023-03-14T05:17:11;9.50;99.90
8832;DHT22;4452;50.756;4.472;2023-03-14T05:19:40;9.50;99.90
8832;DHT22;4452;50.756;4.472;2023-03-14T05:22:06;9.50;99.90
8832;DHT22;4452;50.756;4.472;2023-03-14T05:24:32;9.50;99.90
8832;DHT22;4452;50.756;4.472;2023-03-14T05:26:58;9.50;99.90
8832;DHT22;4452;50.756;4.472;2023-03-14T05:29:23;9.50;99.90
8832;DHT22;4452;50.756;4.472;2023-03-14T05:31:49;9.50;99.90
8832;DHT22;4452;50.756;4.472;2023-03-14T05:34:18;9.50;99.90
8832;DHT22;4452;50.756;4.472;2023-03-14T05:36:43;9.50;99.90
8832;DHT22;4452;50.756;4.472;2023-03-14T05:39:09;9.50;99.90
8832;DHT22;4452;50.756;4.472;2023-03-14T05:41:34;9.50;99.90
8832;DHT22;4452;50.756;4.472;2023-03-14T05:44:01;9.50;99.90
8832;DHT22;4452;50.756;4.472;2023-03-14T05:46:26;9.50;99.90
8832;DHT22;4452;50.756;4.472;2023-03-14T05:48:52;9.50;99.90
8832;DHT22;4452;50.756;4.472;2023-03-14T05:51:18;9.60;99.90
8832;DHT22;4452;50.756;4.472;2023-03-14T05:53:43;9.60;99.90
8832;DHT22;4452;50.756;4.472;2023-03-14T05:56:09;9.60;99.90
8832;DHT22;4452;50.756;4.472;2023-03-14T05:58:34;9.60;99.90
8832;DHT22;4452;50.756;4.472;2023-03-14T06:01:04;9.60;99.90
8832;DHT22;4452;50.756;4.472;2023-03-14T06:03:31;9.60;99.90
8832;DHT22;4452;50.756;4.472;2023-03-14T06:05:57;9.60;99.90
8832;DHT22;4452;50.756;4.472;2023-03-14T06:08:22;9.60;99.90
8832;DHT22;4452;50.756;4.472;2023-03-14T06:10:48;9.60;99.90
8832;DHT22;4452;50.756;4.472;2023-03-14T06:13:14;9.60;99.90
8832;DHT22;4452;50.756;4.472;2023-03-14T06:15:41;9.70;99.90
8832;DHT22;4452;50.756;4.472;2023-03-14T06:18:07;9.70;99.90
8832;DHT22;4452;50.756;4.472;2023-03-14T06:20:33;9.70;99.90
8832;DHT22;4452;50.756;4.472;2023-03-14T06:23:00;9.70;99.90
8832;DHT22;4452;50.756;4.472;2023-03-14T06:25:26;9.70;99.90
8832;DHT22;4452;50.756;4.472;2023-03-14T06:27:51;9.70;99.90
8832;DHT22;4452;50.756;4.472;2023-03-14T06:30:17;9.70;99.90
8832;DHT22;4452;50.756;4.472;2023-03-14T06:32:43;9.70;99.90
8832;DHT22;4452;50.756;4.472;2023-03-14T06:35:09;9.70;99.90
8832;DHT22;4452;50.756;4.472;2023-03-14T06:37:34;9.70;99.90
8832;DHT22;4452;50.756;4.472;2023-03-14T06:40:00;9.70;99.90
8832;DHT22;4452;50.756;4.472;2023-03-14T06:42:25;9.70;99.90
8832;DHT22;4452;50.756;4.472;2023-03-14T06:44:51;9.70;99.90
8832;DHT22;4452;50.756;4.472;2023-03-14T06:47:17;9.70;99.90
8832;DHT22;4452;50.756;4.472;2023-03-14T06:49:42;9.70;99.90
8832;DHT22;4452;50.756;4.472;2023-03-14T06:52:08;9.70;99.90
8832;DHT22;4452;50.756;4.472;2023-03-14T06:54:33;9.70;99.90
8832;DHT22;4452;50.756;4.472;2023-03-14T06:56:59;9.70;99.90
8832;DHT22;4452;50.756;4.472;2023-03-14T06:59:25;9.70;99.90
8832;DHT22;4452;50.756;4.472;2023-03-14T07:01:50;9.70;99.90
8832;DHT22;4452;50.756;4.472;2023-03-14T07:04:17;9.50;99.90
8832;DHT22;4452;50.756;4.472;2023-03-14T07:06:43;9.00;99.90
8832;DHT22;4452;50.756;4.472;2023-03-14T07:09:13;8.50;99.90
8832;DHT22;4452;50.756;4.472;2023-03-14T07:11:39;8.30;99.90
8832;DHT22;4452;50.756;4.472;2023-03-14T07:14:05;8.10;99.90
8832;DHT22;4452;50.756;4.472;2023-03-14T07:16:31;7.90;99.90
8832;DHT22;4452;50.756;4.472;2023-03-14T07:18:59;7.90;99.90
8832;DHT22;4452;50.756;4.472;2023-03-14T07:21:26;7.80;99.90
8832;DHT22;4452;50.756;4.472;2023-03-14T07:23:55;7.70;99.90
8832;DHT22;4452;50.756;4.472;2023-03-14T07:26:23;7.50;99.90
8832;DHT22;4452;50.756;4.472;2023-03-14T07:28:51;7.40;99.90
8832;DHT22;4452;50.756;4.472;2023-03-14T07:31:18;7.30;99.90
8832;DHT22;4452;50.756;4.472;2023-03-14T07:33:45;7.10;99.90
8832;DHT22;4452;50.756;4.472;2023-03-14T07:36:13;7.00;99.90
8832;DHT22;4452;50.756;4.472;2023-03-14T07:38:38;7.00;99.90
8832;DHT22;4452;50.756;4.472;2023-03-14T07:41:05;7.00;99.90
8832;DHT22;4452;50.756;4.472;2023-03-14T07:43:31;7.00;99.90
8832;DHT22;4452;50.756;4.472;2023-03-14T07:45:58;7.00;99.90
8832;DHT22;4452;50.756;4.472;2023-03-14T07:48:24;7.00;99.90
8832;DHT22;4452;50.756;4.472;2023-03-14T07:50:51;7.00;99.90
8832;DHT22;4452;50.756;4.472;2023-03-14T07:53:17;7.10;99.90
8832;DHT22;4452;50.756;4.472;2023-03-14T07:55:44;7.00;99.90
8832;DHT22;4452;50.756;4.472;2023-03-14T07:58:10;7.00;99.90
8832;DHT22;4452;50.756;4.472;2023-03-14T08:00:36;7.10;99.90
8832;DHT22;4452;50.756;4.472;2023-03-14T08:03:02;7.00;99.90
8832;DHT22;4452;50.756;4.472;2023-03-14T08:05:27;7.00;99.90
8832;DHT22;4452;50.756;4.472;2023-03-14T08:07:53;7.00;99.90
8832;DHT22;4452;50.756;4.472;2023-03-14T08:10:19;7.10;99.90
8832;DHT22;4452;50.756;4.472;2023-03-14T08:12:52;7.00;99.90
8832;DHT22;4452;50.756;4.472;2023-03-14T08:15:19;7.10;99.90
8832;DHT22;4452;50.756;4.472;2023-03-14T08:17:44;7.10;99.90
8832;DHT22;4452;50.756;4.472;2023-03-14T08:20:11;7.10;99.90
8832;DHT22;4452;50.756;4.472;2023-03-14T08:22:38;7.00;99.90
8832;DHT22;4452;50.756;4.472;2023-03-14T08:25:04;7.10;99.90
8832;DHT22;4452;50.756;4.472;2023-03-14T08:27:30;7.00;99.90
8832;DHT22;4452;50.756;4.472;2023-03-14T08:29:55;7.10;99.90
8832;DHT22;4452;50.756;4.472;2023-03-14T08:32:21;7.10;99.90
8832;DHT22;4452;50.756;4.472;2023-03-14T08:34:49;7.10;99.90
8832;DHT22;4452;50.756;4.472;2023-03-14T08:37:15;7.10;99.90
8832;DHT22;4452;50.756;4.472;2023-03-14T08:39:40;7.00;99.90
8832;DHT22;4452;50.756;4.472;2023-03-14T08:42:06;7.00;99.90
8832;DHT22;4452;50.756;4.472;2023-03-14T08:44:32;7.00;99.90
8832;DHT22;4452;50.756;4.472;2023-03-14T08:46:57;6.90;99.90
8832;DHT22;4452;50.756;4.472;2023-03-14T08:49:23;6.90;99.90
8832;DHT22;4452;50.756;4.472;2023-03-14T08:51:49;6.90;99.90
8832;DHT22;4452;50.756;4.472;2023-03-14T08:54:14;6.80;99.90
8832;DHT22;4452;50.756;4.472;2023-03-14T08:56:40;6.70;99.90
8832;DHT22;4452;50.756;4.472;2023-03-14T08:59:06;6.70;99.90
8832;DHT22;4452;50.756;4.472;2023-03-14T09:01:33;6.60;99.90
8832;DHT22;4452;50.756;4.472;2023-03-14T09:04:00;6.60;99.90
8832;DHT22;4452;50.756;4.472;2023-03-14T09:06:27;6.50;99.90
8832;DHT22;4452;50.756;4.472;2023-03-14T09:08:53;6.50;99.90
8832;DHT22;4452;50.756;4.472;2023-03-14T09:11:18;6.50;99.90
8832;DHT22;4452;50.756;4.472;2023-03-14T09:13:44;6.40;99.90
8832;DHT22;4452;50.756;4.472;2023-03-14T09:16:09;6.50;99.90
8832;DHT22;4452;50.756;4.472;2023-03-14T09:18:35;6.40;99.90
8832;DHT22;4452;50.756;4.472;2023-03-14T09:21:01;6.40;99.90
8832;DHT22;4452;50.756;4.472;2023-03-14T09:23:27;6.30;99.90
8832;DHT22;4452;50.756;4.472;2023-03-14T09:25:57;6.20;99.90
8832;DHT22;4452;50.756;4.472;2023-03-14T09:28:23;6.30;99.90
8832;DHT22;4452;50.756;4.472;2023-03-14T09:30:48;6.20;99.90
8832;DHT22;4452;50.756;4.472;2023-03-14T09:33:15;6.20;99.90
8832;DHT22;4452;50.756;4.472;2023-03-14T09:35:41;6.20;99.90
8832;DHT22;4452;50.756;4.472;2023-03-14T09:38:06;6.20;99.90
8832;DHT22;4452;50.756;4.472;2023-03-14T09:40:35;6.20;99.90
8832;DHT22;4452;50.756;4.472;2023-03-14T09:43:02;6.20;99.90
8832;DHT22;4452;50.756;4.472;2023-03-14T09:45:36;6.30;99.90
8832;DHT22;4452;50.756;4.472;2023-03-14T09:48:04;6.30;99.90
8832;DHT22;4452;50.756;4.472;2023-03-14T09:50:40;6.30;99.90
8832;DHT22;4452;50.756;4.472;2023-03-14T09:53:14;6.30;99.90
8832;DHT22;4452;50.756;4.472;2023-03-14T09:55:42;6.40;99.90
8832;DHT22;4452;50.756;4.472;2023-03-14T09:58:17;6.40;99.90
8832;DHT22;4452;50.756;4.472;2023-03-14T10:00:47;6.30;99.90
8832;DHT22;4452;50.756;4.472;2023-03-14T10:03:26;6.50;99.90
8832;DHT22;4452;50.756;4.472;2023-03-14T10:05:52;6.50;99.90
8832;DHT22;4452;50.756;4.472;2023-03-14T10:08:18;6.40;99.90
8832;DHT22;4452;50.756;4.472;2023-03-14T10:10:44;6.40;99.90
8832;DHT22;4452;50.756;4.472;2023-03-14T10:13:24;6.30;99.90
8832;DHT22;4452;50.756;4.472;2023-03-14T10:16:00;6.40;99.90
8832;DHT22;4452;50.756;4.472;2023-03-14T10:18:29;6.40;99.90
8832;DHT22;4452;50.756;4.472;2023-03-14T10:21:28;6.40;99.90
8832;DHT22;4452;50.756;4.472;2023-03-14T10:23:54;6.60;99.90
8832;DHT22;4452;50.756;4.472;2023-03-14T10:26:29;6.60;99.90
8832;DHT22;4452;50.756;4.472;2023-03-14T10:29:07;6.70;99.90
8832;DHT22;4452;50.756;4.472;2023-03-14T10:31:52;6.70;99.90
8832;DHT22;4452;50.756;4.472;2023-03-14T10:34:24;6.80;99.90
8832;DHT22;4452;50.756;4.472;2023-03-14T10:36:55;7.00;99.90
8832;DHT22;4452;50.756;4.472;2023-03-14T10:39:29;6.80;99.90
8832;DHT22;4452;50.756;4.472;2023-03-14T10:42:03;6.80;99.90
8832;DHT22;4452;50.756;4.472;2023-03-14T10:44:30;6.80;99.90
8832;DHT22;4452;50.756;4.472;2023-03-14T10:47:03;6.70;99.90
8832;DHT22;4452;50.756;4.472;2023-03-14T10:49:35;6.60;99.90
8832;DHT22;4452;50.756;4.472;2023-03-14T10:52:21;6.50;99.90
8832;DHT22;4452;50.756;4.472;2023-03-14T10:55:03;6.40;99.90
8832;DHT22;4452;50.756;4.472;2023-03-14T10:57:38;6.30;99.90
8832;DHT22;4452;50.756;4.472;2023-03-14T11:00:16;6.30;99.90
8832;DHT22;4452;50.756;4.472;2023-03-14T11:05:57;6.40;99.90
8832;DHT22;4452;50.756;4.472;2023-03-14T11:11:21;6.30;99.90
8832;DHT22;4452;50.756;4.472;2023-03-14T11:19:50;6.10;99.90
8832;DHT22;4452;50.756;4.472;2023-03-14T11:22:20;6.10;99.90
8832;DHT22;4452;50.756;4.472;2023-03-14T11:33:14;5.80;99.90
8832;DHT22;4452;50.756;4.472;2023-03-14T11:35:55;5.80;99.90
8832;DHT22;4452;50.756;4.472;2023-03-14T11:38:48;5.70;99.90
8832;DHT22;4452;50.756;4.472;2023-03-14T11:43:54;5.50;99.90
8832;DHT22;4452;50.756;4.472;2023-03-14T11:46:34;5.40;99.90
8832;DHT22;4452;50.756;4.472;2023-03-14T11:51:51;5.20;99.90
8832;DHT22;4452;50.756;4.472;2023-03-14T11:57:04;5.00;99.90
8832;DHT22;4452;50.756;4.472;2023-03-14T11:59:40;4.90;99.90
8832;DHT22;4452;50.756;4.472;2023-03-14T12:02:26;4.90;99.90
8832;DHT22;4452;50.756;4.472;2023-03-14T12:10:16;4.90;99.90
8832;DHT22;4452;50.756;4.472;2023-03-14T12:12:42;4.80;99.90
8832;DHT22;4452;50.756;4.472;2023-03-14T12:15:20;4.90;99.90
8832;DHT22;4452;50.756;4.472;2023-03-14T12:17:46;4.70;99.90
8832;DHT22;4452;50.756;4.472;2023-03-14T12:20:19;4.80;99.90
8832;DHT22;4452;50.756;4.472;2023-03-14T12:22:52;4.80;99.90
8832;DHT22;4452;50.756;4.472;2023-03-14T12:25:30;4.70;99.90
8832;DHT22;4452;50.756;4.472;2023-03-14T12:35:56;4.60;99.90
8832;DHT22;4452;50.756;4.472;2023-03-14T12:38:46;4.60;99.90
8832;DHT22;4452;50.756;4.472;2023-03-14T12:44:50;4.80;99.90
8832;DHT22;4452;50.756;4.472;2023-03-14T12:49:50;5.10;99.90
8832;DHT22;4452;50.756;4.472;2023-03-14T12:55:14;5.10;99.90
8832;DHT22;4452;50.756;4.472;2023-03-14T13:00:23;5.00;99.90
8832;DHT22;4452;50.756;4.472;2023-03-14T13:03:22;5.00;99.90
8832;DHT22;4452;50.756;4.472;2023-03-14T13:05:57;5.00;99.90
8832;DHT22;4452;50.756;4.472;2023-03-14T13:08:41;4.90;99.90
8832;DHT22;4452;50.756;4.472;2023-03-14T13:11:19;4.80;99.90
8832;DHT22;4452;50.756;4.472;2023-03-14T13:13:57;4.70;99.90
8832;DHT22;4452;50.756;4.472;2023-03-14T13:16:23;4.60;99.90
8832;DHT22;4452;50.756;4.472;2023-03-14T13:18:51;4.70;99.90
8832;DHT22;4452;50.756;4.472;2023-03-14T13:21:27;4.70;99.90
8832;DHT22;4452;50.756;4.472;2023-03-14T13:24:03;4.70;99.90
8832;DHT22;4452;50.756;4.472;2023-03-14T13:26:35;4.70;99.90
8832;DHT22;4452;50.756;4.472;2023-03-14T13:29:09;4.80;99.90
8832;DHT22;4452;50.756;4.472;2023-03-14T13:31:44;4.80;99.90
8832;DHT22;4452;50.756;4.472;2023-03-14T13:34:11;4.70;99.90
8832;DHT22;4452;50.756;4.472;2023-03-14T13:36:38;4.70;99.90
8832;DHT22;4452;50.756;4.472;2023-03-14T13:39:10;4.90;99.90
8832;DHT22;4452;50.756;4.472;2023-03-14T13:41:39;4.80;99.90
8832;DHT22;4452;50.756;4.472;2023-03-14T13:44:17;4.80;99.90
8832;DHT22;4452;50.756;4.472;2023-03-14T13:46:44;4.80;99.90
8832;DHT22;4452;50.756;4.472;2023-03-14T13:49:16;4.80;99.90
8832;DHT22;4452;50.756;4.472;2023-03-14T13:51:44;4.90;99.90
8832;DHT22;4452;50.756;4.472;2023-03-14T13:54:15;4.80;99.90
8832;DHT22;4452;50.756;4.472;2023-03-14T13:56:40;4.80;99.90
8832;DHT22;4452;50.756;4.472;2023-03-14T13:59:30;5.10;99.90
8832;DHT22;4452;50.756;4.472;2023-03-14T14:01:57;5.20;99.90
8832;DHT22;4452;50.756;4.472;2023-03-14T14:04:25;5.30;99.90
8832;DHT22;4452;50.756;4.472;2023-03-14T14:07:09;5.30;99.90
8832;DHT22;4452;50.756;4.472;2023-03-14T14:09:42;5.40;99.90
8832;DHT22;4452;50.756;4.472;2023-03-14T14:12:35;5.50;99.90
8832;DHT22;4452;50.756;4.472;2023-03-14T14:15:27;5.40;99.90
8832;DHT22;4452;50.756;4.472;2023-03-14T14:18:06;5.40;99.90
8832;DHT22;4452;50.756;4.472;2023-03-14T14:20:37;5.40;99.90
8832;DHT22;4452;50.756;4.472;2023-03-14T14:23:05;5.30;99.90
8832;DHT22;4452;50.756;4.472;2023-03-14T14:25:32;5.20;99.90
8832;DHT22;4452;50.756;4.472;2023-03-14T14:27:58;5.20;99.90
8832;DHT22;4452;50.756;4.472;2023-03-14T14:32:52;5.40;99.90
8832;DHT22;4452;50.756;4.472;2023-03-14T14:35:33;5.50;99.90
8832;DHT22;4452;50.756;4.472;2023-03-14T14:37:59;5.50;99.90
8832;DHT22;4452;50.756;4.472;2023-03-14T14:40:29;5.70;99.90
8832;DHT22;4452;50.756;4.472;2023-03-14T14:43:02;5.80;99.90
8832;DHT22;4452;50.756;4.472;2023-03-14T14:45:28;5.90;99.90
8832;DHT22;4452;50.756;4.472;2023-03-14T14:48:02;5.90;99.90
8832;DHT22;4452;50.756;4.472;2023-03-14T14:50:32;5.90;99.90
8832;DHT22;4452;50.756;4.472;2023-03-14T14:53:00;6.00;99.90
8832;DHT22;4452;50.756;4.472;2023-03-14T14:55:40;5.80;99.90
8832;DHT22;4452;50.756;4.472;2023-03-14T14:58:23;5.80;99.90
8832;DHT22;4452;50.756;4.472;2023-03-14T15:00:59;5.70;99.90
8832;DHT22;4452;50.756;4.472;2023-03-14T15:03:30;5.60;99.90
8832;DHT22;4452;50.756;4.472;2023-03-14T15:05:56;5.40;99.90
8832;DHT22;4452;50.756;4.472;2023-03-14T15:08:23;5.30;99.90
8832;DHT22;4452;50.756;4.472;2023-03-14T15:10:49;5.20;99.90
8832;DHT22;4452;50.756;4.472;2023-03-14T15:13:14;4.80;99.90
8832;DHT22;4452;50.756;4.472;2023-03-14T15:15:41;4.50;99.90
8832;DHT22;4452;50.756;4.472;2023-03-14T15:18:18;4.30;99.90
8832;DHT22;4452;50.756;4.472;2023-03-14T15:20:44;4.20;99.90
8832;DHT22;4452;50.756;4.472;2023-03-14T15:23:11;4.20;99.90
8832;DHT22;4452;50.756;4.472;2023-03-14T15:25:38;4.20;99.90
8832;DHT22;4452;50.756;4.472;2023-03-14T15:28:28;4.30;99.90
8832;DHT22;4452;50.756;4.472;2023-03-14T15:30:57;4.40;99.90
8832;DHT22;4452;50.756;4.472;2023-03-14T15:33:24;4.60;99.90
8832;DHT22;4452;50.756;4.472;2023-03-14T15:35:50;4.50;99.90
8832;DHT22;4452;50.756;4.472;2023-03-14T15:38:20;4.60;99.90
8832;DHT22;4452;50.756;4.472;2023-03-14T15:40:52;4.60;99.90
8832;DHT22;4452;50.756;4.472;2023-03-14T15:43:21;4.70;99.90
8832;DHT22;4452;50.756;4.472;2023-03-14T15:45:49;5.00;99.90
8832;DHT22;4452;50.756;4.472;2023-03-14T15:48:20;4.90;99.90
8832;DHT22;4452;50.756;4.472;2023-03-14T15:50:51;4.90;99.90
8832;DHT22;4452;50.756;4.472;2023-03-14T15:53:18;4.80;99.90
8832;DHT22;4452;50.756;4.472;2023-03-14T15:55:43;4.80;99.90
8832;DHT22;4452;50.756;4.472;2023-03-14T15:58:19;4.80;99.90
8832;DHT22;4452;50.756;4.472;2023-03-14T16:00:45;4.80;99.90
8832;DHT22;4452;50.756;4.472;2023-03-14T16:03:12;4.80;99.90
8832;DHT22;4452;50.756;4.472;2023-03-14T16:05:39;4.70;99.90
8832;DHT22;4452;50.756;4.472;2023-03-14T16:08:05;4.70;99.90
8832;DHT22;4452;50.756;4.472;2023-03-14T16:10:30;4.60;99.90
8832;DHT22;4452;50.756;4.472;2023-03-14T16:12:56;4.60;99.90
8832;DHT22;4452;50.756;4.472;2023-03-14T16:15:22;4.60;99.90
8832;DHT22;4452;50.756;4.472;2023-03-14T16:17:52;4.50;99.90
8832;DHT22;4452;50.756;4.472;2023-03-14T16:20:18;4.50;99.90
8832;DHT22;4452;50.756;4.472;2023-03-14T16:22:45;4.30;99.90
8832;DHT22;4452;50.756;4.472;2023-03-14T16:25:12;4.40;99.90
8832;DHT22;4452;50.756;4.472;2023-03-14T16:27:37;4.30;99.90
8832;DHT22;4452;50.756;4.472;2023-03-14T16:30:03;4.30;99.90
8832;DHT22;4452;50.756;4.472;2023-03-14T16:32:30;4.30;99.90
8832;DHT22;4452;50.756;4.472;2023-03-14T16:34:55;4.30;99.90
8832;DHT22;4452;50.756;4.472;2023-03-14T16:37:24;4.30;99.90
8832;DHT22;4452;50.756;4.472;2023-03-14T16:39:52;4.30;99.90
8832;DHT22;4452;50.756;4.472;2023-03-14T16:42:19;4.20;99.90
8832;DHT22;4452;50.756;4.472;2023-03-14T16:44:45;4.30;99.90
8832;DHT22;4452;50.756;4.472;2023-03-14T16:47:11;4.20;99.90
8832;DHT22;4452;50.756;4.472;2023-03-14T16:49:37;4.30;99.90
8832;DHT22;4452;50.756;4.472;2023-03-14T16:52:04;4.20;99.90
8832;DHT22;4452;50.756;4.472;2023-03-14T16:54:30;4.20;99.90
8832;DHT22;4452;50.756;4.472;2023-03-14T16:56:56;4.20;99.90
8832;DHT22;4452;50.756;4.472;2023-03-14T16:59:22;4.20;99.90
8832;DHT22;4452;50.756;4.472;2023-03-14T17:01:50;4.20;99.90
8832;DHT22;4452;50.756;4.472;2023-03-14T17:04:16;4.20;99.90
8832;DHT22;4452;50.756;4.472;2023-03-14T17:06:42;4.20;99.90
8832;DHT22;4452;50.756;4.472;2023-03-14T17:09:10;4.20;99.90
8832;DHT22;4452;50.756;4.472;2023-03-14T17:11:36;4.20;99.90
8832;DHT22;4452;50.756;4.472;2023-03-14T17:14:02;4.20;99.90
8832;DHT22;4452;50.756;4.472;2023-03-14T17:16:28;4.20;99.90
8832;DHT22;4452;50.756;4.472;2023-03-14T17:18:55;4.20;99.90
8832;DHT22;4452;50.756;4.472;2023-03-14T17:21:21;4.10;99.90
8832;DHT22;4452;50.756;4.472;2023-03-14T17:23:47;4.10;99.90
8832;DHT22;4452;50.756;4.472;2023-03-14T17:26:13;4.10;99.90